Hewitt, New Jersey
Current Conditions -  °F | °C
As of 8:53 AM on Thursday 23 Oct 2014 (Local Time) from KFWN Reporting Station
Moderate Rain Moderate Rain  
Wind Chill: 52°   Ceiling: 3600
Heat Index: 52°   Visibility: 7mi
Dew Point: 46°   Wind: 7mph
Humidity: 80%   Direction: 360°N
Pressure: 29.76"   Gusts: NA
Location:  41.14°N, 74.31°W
Report Text: KFWN 231253Z AUTO 36006KT 7SM RA OVC036 11/08 A2976 RMK AO2 SLP076 P0005 T01110078
Loading
Personal Weather Stations






























Interactive Weather Map
Tropical Storm Tracking
New forecast layout! Learn more

10-Day Weather Forecast

Advertisements
Track Severe Weather on mobile